createdAt,value
2023-02-22T00:01:35.375Z,2.10
2023-02-22T00:04:59.428Z,2.30
2023-02-22T00:08:30.306Z,2.60
2023-02-22T00:11:54.233Z,2.20
2023-02-22T00:15:21.804Z,2.43
2023-02-22T00:18:45.948Z,2.30
2023-02-22T00:22:09.762Z,2.50
2023-02-22T00:25:36.248Z,2.33
2023-02-22T00:29:00.394Z,1.80
2023-02-22T00:32:24.956Z,1.93
2023-02-22T00:35:48.942Z,2.43
2023-02-22T00:39:13.337Z,2.60
2023-02-22T00:42:38.587Z,3.10
2023-02-22T00:46:02.536Z,2.47
2023-02-22T00:49:27.045Z,2.50
2023-02-22T00:52:50.925Z,2.63
2023-02-22T00:56:14.748Z,2.27
2023-02-22T00:59:39.909Z,2.50
2023-02-22T01:03:04.914Z,2.17
2023-02-22T01:06:29.759Z,2.60
2023-02-22T01:09:55.451Z,2.27
2023-02-22T01:13:19.967Z,2.93
2023-02-22T01:16:45.384Z,2.50
2023-02-22T01:20:13.353Z,2.67
2023-02-22T01:23:37.176Z,2.10
2023-02-22T01:27:02.854Z,2.80
2023-02-22T01:30:30.902Z,2.50
2023-02-22T01:33:56.256Z,2.77
2023-02-22T01:37:19.781Z,2.73
2023-02-22T01:40:45.131Z,2.57
2023-02-22T01:44:21.576Z,2.70
2023-02-22T01:47:45.154Z,2.20
2023-02-22T01:51:14.765Z,2.50
2023-02-22T01:54:43.728Z,2.40
2023-02-22T01:58:09.259Z,2.27
2023-02-22T02:01:33.941Z,3.20
2023-02-22T02:04:59.529Z,2.30
2023-02-22T02:08:36.030Z,2.90
2023-02-22T02:12:02.676Z,2.27
2023-02-22T02:15:32.695Z,2.10
2023-02-22T02:18:56.302Z,2.50
2023-02-22T02:22:41.180Z,2.47
2023-02-22T02:26:52.097Z,2.30
2023-02-22T02:30:49.802Z,2.53
2023-02-22T02:34:24.298Z,2.27
2023-02-22T02:37:57.513Z,2.20
2023-02-22T02:41:30.193Z,2.53
2023-02-22T02:45:02.567Z,2.30
2023-02-22T02:48:29.052Z,2.93
2023-02-22T02:51:56.939Z,2.77
2023-02-22T02:55:21.141Z,2.33
2023-02-22T02:58:50.177Z,2.47
2023-02-22T03:02:36.714Z,2.87
2023-02-22T03:06:17.851Z,3.17
2023-02-22T03:09:58.383Z,2.30
2023-02-22T03:13:31.292Z,2.30
2023-02-22T03:17:06.090Z,1.97
2023-02-22T03:20:43.207Z,2.40
2023-02-22T03:24:18.819Z,2.37
2023-02-22T03:27:48.359Z,2.43
2023-02-22T03:31:17.059Z,2.87
2023-02-22T03:34:47.544Z,2.03
2023-02-22T03:38:16.452Z,2.57
2023-02-22T03:41:45.331Z,2.20
2023-02-22T03:45:16.645Z,2.67
2023-02-22T03:48:50.541Z,2.37
2023-02-22T03:52:15.151Z,2.50
2023-02-22T03:55:39.755Z,2.70
2023-02-22T03:59:05.327Z,2.83
2023-02-22T04:02:30.781Z,2.70
2023-02-22T04:05:54.946Z,2.50
2023-02-22T04:09:20.284Z,2.33
2023-02-22T04:12:45.073Z,2.30
2023-02-22T04:16:08.953Z,2.57
2023-02-22T04:19:35.072Z,2.93
2023-02-22T04:22:59.444Z,2.70
2023-02-22T04:26:23.760Z,2.80
2023-02-22T04:29:51.873Z,2.30
2023-02-22T04:33:16.129Z,2.53
2023-02-22T04:36:42.370Z,2.70
2023-02-22T04:40:08.185Z,2.63
2023-02-22T04:43:32.997Z,2.57
2023-02-22T04:47:12.683Z,2.40
2023-02-22T04:50:37.398Z,2.30
2023-02-22T04:54:03.570Z,2.80
2023-02-22T04:57:29.561Z,2.70
2023-02-22T05:00:53.622Z,2.77
2023-02-22T05:04:17.674Z,2.67
2023-02-22T05:07:42.346Z,3.27
2023-02-22T05:11:08.185Z,2.83
2023-02-22T05:14:32.150Z,2.60
2023-02-22T05:17:55.716Z,3.23
2023-02-22T05:21:19.630Z,2.60
2023-02-22T05:24:43.916Z,2.73
2023-02-22T05:28:13.136Z,2.80
2023-02-22T05:31:37.121Z,2.93
2023-02-22T05:35:01.043Z,2.93
2023-02-22T05:38:24.937Z,2.53
2023-02-22T05:41:48.926Z,3.40
2023-02-22T05:45:16.567Z,2.90
2023-02-22T05:48:40.461Z,3.30
2023-02-22T05:52:04.796Z,2.90
2023-02-22T05:55:28.988Z,2.90
2023-02-22T05:58:53.310Z,2.87
2023-02-22T06:02:18.515Z,2.50
2023-02-22T06:05:43.246Z,2.63
2023-02-22T06:09:07.706Z,2.70
2023-02-22T06:12:31.672Z,2.97
2023-02-22T06:15:55.703Z,3.93
2023-02-22T06:19:21.166Z,2.87
2023-02-22T06:22:45.719Z,2.77
2023-02-22T06:26:09.374Z,3.00
2023-02-22T06:29:33.273Z,2.67
2023-02-22T06:32:57.265Z,2.83
2023-02-22T06:36:22.165Z,2.60
2023-02-22T06:39:46.134Z,3.07
2023-02-22T06:43:11.156Z,3.20
2023-02-22T06:46:35.263Z,3.30
2023-02-22T06:50:00.781Z,3.20
2023-02-22T06:53:26.256Z,2.30
2023-02-22T06:56:50.625Z,3.07
2023-02-22T07:00:17.129Z,2.70
2023-02-22T07:03:41.087Z,3.70
2023-02-22T07:07:05.496Z,2.60
2023-02-22T07:10:33.489Z,2.80
2023-02-22T07:13:57.843Z,3.10
2023-02-22T07:17:21.743Z,3.10
2023-02-22T07:20:45.962Z,3.43
2023-02-22T07:24:09.908Z,3.50
2023-02-22T07:27:36.882Z,3.73
2023-02-22T07:31:01.524Z,3.00
2023-02-22T07:34:26.597Z,4.03
2023-02-22T07:37:50.493Z,3.10
2023-02-22T07:41:14.827Z,3.53
2023-02-22T07:44:40.356Z,2.53
2023-02-22T07:48:06.247Z,3.00
2023-02-22T07:51:30.481Z,3.43
2023-02-22T07:54:54.031Z,2.60
2023-02-22T07:58:19.876Z,2.97
2023-02-22T08:01:45.085Z,2.97
2023-02-22T08:05:10.706Z,3.23
2023-02-22T08:08:34.620Z,2.90
2023-02-22T08:11:58.609Z,3.00
2023-02-22T08:15:25.705Z,3.50
2023-02-22T08:18:50.916Z,2.83
2023-02-22T08:22:14.451Z,1.80
2023-02-22T08:25:38.402Z,2.30
2023-02-22T08:29:02.589Z,2.27
2023-02-22T08:32:26.821Z,2.70
2023-02-22T08:35:52.171Z,2.40
2023-02-22T08:39:16.401Z,3.00
2023-02-22T08:42:40.338Z,2.77
2023-02-22T08:46:04.258Z,3.50
2023-02-22T08:49:28.294Z,3.70
2023-02-22T08:52:54.794Z,2.63
2023-02-22T08:56:18.654Z,2.77
2023-02-22T08:59:42.734Z,2.30
2023-02-22T09:03:08.208Z,2.67
2023-02-22T09:06:32.177Z,2.27
2023-02-22T09:09:57.098Z,2.60
2023-02-22T09:13:21.085Z,2.50
2023-02-22T09:16:45.730Z,2.53
2023-02-22T09:20:12.411Z,2.90
2023-02-22T09:23:35.985Z,2.40
2023-02-22T09:27:04.313Z,2.80
2023-02-22T09:30:31.954Z,2.07
2023-02-22T09:33:56.073Z,2.73
2023-02-22T09:37:20.797Z,2.30
2023-02-22T09:40:49.718Z,2.83
2023-02-22T09:44:24.985Z,2.30
2023-02-22T09:47:56.435Z,2.30
2023-02-22T09:51:27.397Z,2.40
2023-02-22T09:54:58.408Z,2.20
2023-02-22T09:58:25.355Z,2.40
2023-02-22T10:01:58.229Z,2.00
2023-02-22T10:05:28.730Z,2.70
2023-02-22T10:08:57.018Z,2.87
2023-02-22T10:12:31.944Z,2.57
2023-02-22T10:16:01.416Z,3.10
2023-02-22T10:19:35.319Z,2.60
2023-02-22T10:23:12.041Z,3.40
2023-02-22T10:26:42.108Z,2.73
2023-02-22T10:30:24.553Z,3.30
2023-02-22T10:33:57.734Z,2.70
2023-02-22T10:37:28.057Z,3.10
2023-02-22T10:40:57.996Z,3.13
2023-02-22T10:44:21.671Z,3.00
2023-02-22T10:47:46.528Z,2.87
2023-02-22T10:51:11.919Z,2.77
2023-02-22T10:54:42.590Z,3.00
2023-02-22T10:58:08.410Z,2.93
2023-02-22T11:01:38.330Z,2.73
2023-02-22T11:05:05.584Z,2.87
2023-02-22T11:08:32.965Z,2.93
2023-02-22T11:12:12.896Z,2.90
2023-02-22T11:15:36.499Z,2.20
2023-02-22T11:19:08.330Z,2.33
2023-02-22T11:22:41.037Z,2.37
2023-02-22T11:26:09.997Z,2.50
2023-02-22T11:29:38.219Z,3.13
2023-02-22T11:33:17.682Z,3.33
2023-02-22T11:36:43.536Z,2.63
2023-02-22T11:40:22.733Z,2.43
2023-02-22T11:43:48.357Z,2.70
2023-02-22T11:47:14.178Z,2.70
2023-02-22T11:50:47.189Z,2.80
2023-02-22T11:54:34.616Z,2.57
2023-02-22T11:58:19.189Z,2.70
2023-02-22T12:01:53.382Z,2.80
2023-02-22T12:05:29.828Z,2.97
2023-02-22T12:09:07.135Z,2.57
2023-02-22T12:12:52.549Z,3.17
2023-02-22T12:16:31.165Z,2.57
2023-02-22T12:20:01.651Z,2.70
2023-02-22T12:23:45.812Z,3.17
2023-02-22T12:27:14.916Z,2.67
2023-02-22T12:30:45.338Z,3.30
2023-02-22T12:34:14.599Z,3.60
2023-02-22T12:38:01.682Z,4.40
2023-02-22T12:41:34.202Z,3.07
2023-02-22T12:45:08.262Z,2.70
2023-02-22T12:48:49.457Z,2.50
2023-02-22T12:52:35.987Z,2.57
2023-02-22T12:56:17.345Z,2.80
2023-02-22T12:59:50.163Z,2.20
2023-02-22T13:03:34.014Z,2.37
2023-02-22T13:07:10.998Z,2.40
2023-02-22T13:10:45.771Z,2.80
2023-02-22T13:14:23.278Z,2.53
2023-02-22T13:18:02.088Z,2.60
2023-02-22T13:21:37.272Z,2.60
2023-02-22T13:25:09.180Z,2.30
2023-02-22T13:28:40.861Z,2.50
2023-02-22T13:32:19.165Z,2.13
2023-02-22T13:36:07.529Z,2.60
2023-02-22T13:40:11.735Z,1.93
2023-02-22T13:44:01.145Z,2.60
2023-02-22T13:48:11.386Z,2.40
2023-02-22T13:51:48.307Z,2.23
2023-02-22T13:55:22.197Z,2.80
2023-02-22T13:58:54.012Z,2.50
2023-02-22T14:03:02.340Z,2.70
2023-02-22T14:06:41.653Z,2.30
2023-02-22T14:10:05.726Z,2.40
2023-02-22T14:13:32.202Z,2.30
2023-02-22T14:17:22.620Z,2.20
2023-02-22T14:20:48.025Z,2.00
2023-02-22T14:24:14.888Z,2.27
2023-02-22T14:27:42.520Z,2.37
2023-02-22T14:31:15.448Z,2.60
2023-02-22T14:34:50.604Z,2.40
2023-02-22T14:38:20.917Z,1.90
2023-02-22T14:41:51.244Z,2.30
2023-02-22T14:45:26.892Z,2.43
2023-02-22T14:48:58.779Z,2.50
2023-02-22T14:52:27.590Z,2.20
2023-02-22T14:55:57.367Z,2.80
2023-02-22T14:59:25.832Z,2.13
2023-02-22T15:02:52.254Z,2.20
2023-02-22T15:06:20.287Z,2.40
2023-02-22T15:09:46.640Z,2.53
2023-02-22T15:13:23.741Z,2.40
2023-02-22T15:16:51.346Z,2.53
2023-02-22T15:20:20.729Z,2.50
2023-02-22T15:23:48.922Z,2.40
2023-02-22T15:27:19.482Z,2.77
2023-02-22T15:30:45.185Z,2.97
2023-02-22T15:34:24.532Z,3.57
2023-02-22T15:37:58.476Z,2.63
2023-02-22T15:41:27.918Z,2.30
2023-02-22T15:44:54.969Z,2.33
2023-02-22T15:48:20.476Z,2.70
2023-02-22T15:51:46.474Z,3.13
2023-02-22T15:55:12.462Z,2.60
2023-02-22T15:58:39.013Z,2.70
2023-02-22T16:02:02.995Z,2.50
2023-02-22T16:05:38.880Z,2.67
2023-02-22T16:09:09.733Z,2.47
2023-02-22T16:12:33.631Z,2.80
2023-02-22T16:16:01.814Z,3.00
2023-02-22T16:19:40.680Z,2.70
2023-02-22T16:23:26.987Z,2.30
2023-02-22T16:27:08.846Z,2.70
2023-02-22T16:30:35.054Z,2.83
2023-02-22T16:33:59.157Z,2.63
2023-02-22T16:37:24.884Z,2.70
2023-02-22T16:40:55.136Z,2.67
2023-02-22T16:44:19.366Z,2.60
2023-02-22T16:47:43.809Z,2.93
2023-02-22T16:51:17.848Z,2.40
2023-02-22T16:54:45.118Z,3.00
2023-02-22T16:58:10.606Z,2.80
2023-02-22T17:01:35.381Z,2.80
2023-02-22T17:04:59.338Z,2.77
2023-02-22T17:08:23.865Z,3.07
2023-02-22T17:11:49.676Z,4.03
2023-02-22T17:15:23.215Z,3.57
2023-02-22T17:18:47.672Z,2.93
2023-02-22T17:22:18.532Z,2.80
2023-02-22T17:25:44.732Z,3.00
2023-02-22T17:29:08.637Z,3.27
2023-02-22T17:32:33.902Z,3.13
2023-02-22T17:35:59.719Z,3.37
2023-02-22T17:39:23.567Z,3.80
2023-02-22T17:42:47.565Z,4.30
2023-02-22T17:46:11.435Z,3.90
2023-02-22T17:49:36.627Z,4.30
2023-02-22T17:53:01.530Z,4.37
2023-02-22T17:56:25.633Z,3.53
2023-02-22T17:59:49.858Z,4.33
2023-02-22T18:03:16.367Z,2.97
2023-02-22T18:06:41.795Z,4.50
2023-02-22T18:10:11.904Z,4.23
2023-02-22T18:13:35.709Z,4.27
2023-02-22T18:17:01.238Z,3.90
2023-02-22T18:20:31.136Z,3.60
2023-02-22T18:23:56.204Z,3.33
2023-02-22T18:27:19.972Z,3.33
2023-02-22T18:30:44.348Z,2.97
2023-02-22T18:34:08.141Z,2.90
2023-02-22T18:37:31.986Z,3.30
2023-02-22T18:41:06.313Z,2.80
2023-02-22T18:44:32.058Z,2.93
2023-02-22T18:47:55.972Z,3.50
2023-02-22T18:51:20.283Z,2.50
2023-02-22T18:54:44.330Z,3.00
2023-02-22T18:58:11.069Z,3.20
2023-02-22T19:01:38.664Z,3.40
2023-02-22T19:05:03.798Z,3.10
2023-02-22T19:08:27.839Z,3.30
2023-02-22T19:11:54.482Z,3.30
2023-02-22T19:15:20.548Z,2.87
2023-02-22T19:18:44.642Z,2.83
2023-02-22T19:22:08.619Z,2.90
2023-02-22T19:25:32.432Z,3.13
2023-02-22T19:28:58.490Z,3.40
2023-02-22T19:32:24.249Z,2.97
2023-02-22T19:35:48.196Z,3.47
2023-02-22T19:39:12.095Z,3.10
2023-02-22T19:42:36.175Z,3.00
2023-02-22T19:46:00.056Z,2.80
2023-02-22T19:49:27.683Z,2.90
2023-02-22T19:52:53.582Z,3.10
2023-02-22T19:56:19.077Z,4.67
2023-02-22T19:59:42.905Z,3.00
2023-02-22T20:03:06.683Z,2.67
2023-02-22T20:06:35.116Z,2.87
2023-02-22T20:09:59.005Z,3.10
2023-02-22T20:13:22.771Z,3.13
2023-02-22T20:16:46.639Z,3.00
2023-02-22T20:20:12.968Z,2.37
2023-02-22T20:23:40.139Z,3.07
2023-02-22T20:27:04.111Z,3.27
2023-02-22T20:30:28.011Z,3.40
2023-02-22T20:33:55.947Z,2.87
2023-02-22T20:37:19.865Z,3.20
2023-02-22T20:40:46.775Z,3.20
2023-02-22T20:44:13.950Z,3.47
2023-02-22T20:47:37.836Z,3.23
2023-02-22T20:51:07.283Z,3.67
2023-02-22T20:54:31.261Z,4.03
2023-02-22T20:57:56.423Z,4.30
2023-02-22T21:01:22.457Z,3.70
2023-02-22T21:04:46.595Z,4.13
2023-02-22T21:08:12.244Z,3.90
2023-02-22T21:11:36.745Z,3.50
2023-02-22T21:15:02.047Z,3.80
2023-02-22T21:18:26.542Z,4.10
2023-02-22T21:21:51.265Z,4.37
2023-02-22T21:25:16.583Z,4.03
2023-02-22T21:28:50.971Z,3.80
2023-02-22T21:32:16.576Z,4.63
2023-02-22T21:35:43.135Z,3.97
2023-02-22T21:39:17.862Z,4.13
2023-02-22T21:42:41.738Z,4.53
2023-02-22T21:46:07.004Z,4.10
2023-02-22T21:49:32.373Z,4.50
2023-02-22T21:52:56.293Z,4.30
2023-02-22T21:56:23.732Z,4.13
2023-02-22T21:59:48.480Z,4.00
2023-02-22T22:03:20.239Z,5.03
2023-02-22T22:06:46.613Z,4.77
2023-02-22T22:10:16.959Z,4.97
2023-02-22T22:13:42.411Z,4.30
2023-02-22T22:17:09.263Z,4.17
2023-02-22T22:20:33.189Z,4.27
2023-02-22T22:23:58.405Z,4.23
2023-02-22T22:27:21.892Z,4.50
2023-02-22T22:30:45.829Z,4.33
2023-02-22T22:34:09.970Z,4.60
2023-02-22T22:37:34.593Z,4.93
2023-02-22T22:41:02.030Z,5.27
2023-02-22T22:44:33.022Z,4.50
2023-02-22T22:47:57.243Z,3.70
2023-02-22T22:51:22.579Z,4.07
2023-02-22T22:54:46.518Z,5.27
2023-02-22T22:58:12.609Z,4.20
2023-02-22T23:01:40.513Z,4.53
2023-02-22T23:05:09.364Z,5.07
2023-02-22T23:08:43.084Z,4.47
2023-02-22T23:12:09.592Z,4.87
2023-02-22T23:15:34.861Z,4.63
2023-02-22T23:18:58.729Z,4.50
2023-02-22T23:22:23.164Z,5.77
2023-02-22T23:25:50.622Z,5.73
2023-02-22T23:29:14.522Z,5.10
2023-02-22T23:32:40.253Z,4.90
2023-02-22T23:36:04.406Z,4.10
2023-02-22T23:39:28.501Z,3.83
2023-02-22T23:42:54.512Z,4.03
2023-02-22T23:46:19.838Z,4.10
2023-02-22T23:49:49.415Z,4.30
2023-02-22T23:53:15.146Z,4.67
2023-02-22T23:56:44.939Z,4.40
